Voyager Of The Seas — C6SE5 — position and weather

sailwx.info

Track history (hours):
 
Tides and Currents Weather Stations Pressure Air Temp Water Temp Dewpoint Dewpoint Depression Visibility Wind Speed Wind Dir Waves Ship Positions

Voyager Of The Seas

Operator: Royal Caribbean Cruises Ltd

Last reported at 2017-Dec-11 13:31 UTC. Time now 2017-Dec-12 04:32 UTC.
Position S 33°12' E 152°23'.

Type: Passenger vessel. MMSI: 311317000.

Date/timePositionNaut miles runAvg speedWind from/ knotsBaromVisibWave heightAir tempDewpointWater temp
2017-Dec-11 13:31S 33°12' E 152°23'613.9
2017-Dec-11 13:06S 33°08' E 152°28'114.2
2017-Dec-11 13:00S 33°07' E 152°30'914.3
2017-Dec-11 12:23S 33°01' E 152°37'714.5
2017-Dec-11 11:55S 32°57' E 152°43'30216.8
2017-Dec-10 18:00S 29°36' E 157°06'21419.5 130 / 241017.010.8 23.0 24.0
2017-Dec-10 07:00S 27°12' E 160°06'42518.5 150 / 251015.010.8 23.0 24.0
2017-Dec-09 08:01S 22°34' E 166°00'218.9
2017-Dec-09 07:55S 22°33' E 166°02'818.7
2017-Dec-09 07:30S 22°28' E 166°08'918.4
2017-Dec-09 07:00S 22°21' E 166°15'714.6
2017-Dec-09 06:30S 22°16' E 166°21'5 9.2
2017-Dec-09 06:00S 22°16' E 166°26'0 0.5
2017-Dec-09 05:25S 22°16' E 166°26'0 0.0
2017-Dec-09 04:58S 22°16' E 166°26'0 0.0
2017-Dec-09 04:28S 22°16' E 166°26'0 0.0
2017-Dec-09 03:55S 22°16' E 166°26'0 0.0
2017-Dec-09 03:28S 22°16' E 166°26'0 0.0
2017-Dec-09 02:55S 22°16' E 166°26'0 0.0
2017-Dec-09 02:25S 22°16' E 166°26'0 0.0
2017-Dec-09 01:58S 22°16' E 166°26'0 0.0
2017-Dec-09 01:25S 22°16' E 166°26'0 0.0
2017-Dec-09 00:58S 22°16' E 166°26'0 0.0
2017-Dec-09 00:28S 22°16' E 166°26'0 0.0
2017-Dec-08 23:58S 22°16' E 166°26'0 0.0
2017-Dec-08 23:28S 22°16' E 166°26'0 0.0
2017-Dec-08 22:55S 22°16' E 166°26'0 0.0
2017-Dec-08 22:28S 22°16' E 166°26'0 0.0
2017-Dec-08 21:58S 22°16' E 166°26'0 0.0
2017-Dec-08 21:25S 22°16' E 166°26'0 0.0
2017-Dec-08 20:58S 22°16' E 166°26'0 0.5
2017-Dec-08 20:30S 22°16' E 166°26'3 5.8
2017-Dec-08 20:01S 22°16' E 166°23'816.5
2017-Dec-08 19:30S 22°21' E 166°30'918.2
2017-Dec-08 19:00S 22°23' E 166°40'10615.1
2017-Dec-08 12:00S 21°30' E 168°18'156 6.5 120 / 161012.3 25.0 26.0
2017-Dec-07 12:00S 18°54' E 168°30'246 5.1 1010.010.8 26.0 26.0
2017-Dec-05 12:00S 22°54' E 167°30'84820.7 080 / 121010.610.8 23.0 24.0
2017-Dec-03 19:00S 31°30' E 154°54'9918.9 110 / 181007.010.8 22.0 22.0
2017-Dec-03 13:44S 32°36' E 153°26'520.5
2017-Dec-03 13:29S 32°38' E 153°21'1020.0
2017-Dec-03 13:00S 32°44' E 153°12'1920.3
2017-Dec-03 12:04S 32°56' E 152°54'119.8
2017-Dec-03 12:00S 32°57' E 152°53'5307.9
2017-Dec-03 12:00S 32°54' E 152°48'1020.2 360 / 101009.010.8
2017-Dec-03 11:30S 33°03' E 152°43'1020.1
2017-Dec-03 11:00S 33°09' E 152°34'1019.6
2017-Dec-03 10:30S 33°15' E 152°24'1019.2
2017-Dec-03 10:00S 33°21' E 152°15'1019.5
2017-Dec-03 09:30S 33°27' E 152°06'1019.1
2017-Dec-03 09:00S 33°33' E 151°57'919.0
2017-Dec-03 08:30S 33°39' E 151°48'1019.1
2017-Dec-03 08:00S 33°44' E 151°39'1019.4
2017-Dec-03 07:30S 33°50' E 151°29'5 0.4
2017-Dec-02 18:31S 33°50' E 151°23'014.0
2017-Dec-02 18:30S 33°50' E 151°23'510.1
2017-Dec-02 17:59S 33°48' E 151°29'34 9.6
2017-Dec-02 14:29S 33°29' E 152°03'27 9.6
2017-Dec-02 11:39S 33°12' E 152°28'46 3.1
2017-Dec-01 20:52S 32°34' E 152°57'410.3
2017-Dec-01 20:30S 32°37' E 152°54'510.3
2017-Dec-01 20:00S 32°40' E 152°50'510.1
2017-Dec-01 19:30S 32°43' E 152°45'510.0
2017-Dec-01 19:00S 32°47' E 152°41'5334.0
2017-Dec-01 19:00S 32°42' E 152°42'919.0 010 / 381010.2 21.0 19.0
2017-Dec-01 18:30S 32°50' E 152°37'5 9.7
2017-Dec-01 18:01S 32°53' E 152°33'5 9.8
2017-Dec-01 17:30S 32°56' E 152°28'5 9.7
2017-Dec-01 17:00S 32°59' E 152°23'510.0
2017-Dec-01 16:30S 33°02' E 152°18'5 9.8
2017-Dec-01 16:01S 33°05' E 152°14'5 9.7
2017-Dec-01 15:30S 33°09' E 152°10'5 9.8
2017-Dec-01 15:00S 33°12' E 152°06'5 9.9
2017-Dec-01 14:30S 33°16' E 152°01'  
Track history (hours):
 
Tides and Currents Weather Stations Pressure Air Temp Water Temp Dewpoint Dewpoint Depression Visibility Wind Speed Wind Dir Waves Ship Positions

Voyager Of The Seas

Operator: Royal Caribbean Cruises Ltd

Last reported at 2017-Dec-11 13:31 UTC. Time now 2017-Dec-12 04:32 UTC.
Position S 33°12' E 152°23'.

Type: Passenger vessel. MMSI: 311317000.

Date/timePositionNaut miles runAvg speedWind from/ knotsBaromVisibWave heightAir tempDewpointWater temp
2017-Dec-11 13:31S 33°12' E 152°23'613.9
2017-Dec-11 13:06S 33°08' E 152°28'114.2
2017-Dec-11 13:00S 33°07' E 152°30'914.3
2017-Dec-11 12:23S 33°01' E 152°37'714.5
2017-Dec-11 11:55S 32°57' E 152°43'30216.8
2017-Dec-10 18:00S 29°36' E 157°06'21419.5 130 / 241017.010.8 23.0 24.0
2017-Dec-10 07:00S 27°12' E 160°06'42518.5 150 / 251015.010.8 23.0 24.0
2017-Dec-09 08:01S 22°34' E 166°00'218.9
2017-Dec-09 07:55S 22°33' E 166°02'818.7
2017-Dec-09 07:30S 22°28' E 166°08'918.4
2017-Dec-09 07:00S 22°21' E 166°15'714.6
2017-Dec-09 06:30S 22°16' E 166°21'5 9.2
2017-Dec-09 06:00S 22°16' E 166°26'0 0.5
2017-Dec-09 05:25S 22°16' E 166°26'0 0.0
2017-Dec-09 04:58S 22°16' E 166°26'0 0.0
2017-Dec-09 04:28S 22°16' E 166°26'0 0.0
2017-Dec-09 03:55S 22°16' E 166°26'0 0.0
2017-Dec-09 03:28S 22°16' E 166°26'0 0.0
2017-Dec-09 02:55S 22°16' E 166°26'0 0.0
2017-Dec-09 02:25S 22°16' E 166°26'0 0.0
2017-Dec-09 01:58S 22°16' E 166°26'0 0.0
2017-Dec-09 01:25S 22°16' E 166°26'0 0.0
2017-Dec-09 00:58S 22°16' E 166°26'0 0.0
2017-Dec-09 00:28S 22°16' E 166°26'0 0.0
2017-Dec-08 23:58S 22°16' E 166°26'0 0.0
2017-Dec-08 23:28S 22°16' E 166°26'0 0.0
2017-Dec-08 22:55S 22°16' E 166°26'0 0.0
2017-Dec-08 22:28S 22°16' E 166°26'0 0.0
2017-Dec-08 21:58S 22°16' E 166°26'0 0.0
2017-Dec-08 21:25S 22°16' E 166°26'0 0.0
2017-Dec-08 20:58S 22°16' E 166°26'0 0.5
2017-Dec-08 20:30S 22°16' E 166°26'3 5.8
2017-Dec-08 20:01S 22°16' E 166°23'816.5
2017-Dec-08 19:30S 22°21' E 166°30'918.2
2017-Dec-08 19:00S 22°23' E 166°40'10615.1
2017-Dec-08 12:00S 21°30' E 168°18'156 6.5 120 / 161012.3 25.0 26.0
2017-Dec-07 12:00S 18°54' E 168°30'246 5.1 1010.010.8 26.0 26.0
2017-Dec-05 12:00S 22°54' E 167°30'84820.7 080 / 121010.610.8 23.0 24.0
2017-Dec-03 19:00S 31°30' E 154°54'9918.9 110 / 181007.010.8 22.0 22.0
2017-Dec-03 13:44S 32°36' E 153°26'520.5
2017-Dec-03 13:29S 32°38' E 153°21'1020.0
2017-Dec-03 13:00S 32°44' E 153°12'1920.3
2017-Dec-03 12:04S 32°56' E 152°54'119.8
2017-Dec-03 12:00S 32°57' E 152°53'5307.9
2017-Dec-03 12:00S 32°54' E 152°48'1020.2 360 / 101009.010.8
2017-Dec-03 11:30S 33°03' E 152°43'1020.1
2017-Dec-03 11:00S 33°09' E 152°34'1019.6
2017-Dec-03 10:30S 33°15' E 152°24'1019.2
2017-Dec-03 10:00S 33°21' E 152°15'1019.5
2017-Dec-03 09:30S 33°27' E 152°06'1019.1
2017-Dec-03 09:00S 33°33' E 151°57'919.0
2017-Dec-03 08:30S 33°39' E 151°48'1019.1
2017-Dec-03 08:00S 33°44' E 151°39'1019.4
2017-Dec-03 07:30S 33°50' E 151°29'5 0.4
2017-Dec-02 18:31S 33°50' E 151°23'014.0
2017-Dec-02 18:30S 33°50' E 151°23'510.1
2017-Dec-02 17:59S 33°48' E 151°29'34 9.6
2017-Dec-02 14:29S 33°29' E 152°03'27 9.6
2017-Dec-02 11:39S 33°12' E 152°28'46 3.1
2017-Dec-01 20:52S 32°34' E 152°57'410.3
2017-Dec-01 20:30S 32°37' E 152°54'510.3
2017-Dec-01 20:00S 32°40' E 152°50'510.1
2017-Dec-01 19:30S 32°43' E 152°45'510.0
2017-Dec-01 19:00S 32°47' E 152°41'5334.0
2017-Dec-01 19:00S 32°42' E 152°42'919.0 010 / 381010.2 21.0 19.0
2017-Dec-01 18:30S 32°50' E 152°37'5 9.7
2017-Dec-01 18:01S 32°53' E 152°33'5 9.8
2017-Dec-01 17:30S 32°56' E 152°28'5 9.7
2017-Dec-01 17:00S 32°59' E 152°23'510.0
2017-Dec-01 16:30S 33°02' E 152°18'5 9.8
2017-Dec-01 16:01S 33°05' E 152°14'5 9.7
2017-Dec-01 15:30S 33°09' E 152°10'5 9.8
2017-Dec-01 15:00S 33°12' E 152°06'5 9.9
2017-Dec-01 14:30S 33°16' E 152°01'  

Dump ship's entire track history